createdAt,value
2018-05-14T00:01:30.181Z,5.77
2018-05-14T00:03:58.085Z,5.90
2018-05-14T00:06:25.969Z,6.17
2018-05-14T00:08:53.881Z,5.93
2018-05-14T00:11:21.777Z,6.00
2018-05-14T00:13:49.665Z,7.33
2018-05-14T00:16:17.577Z,6.90
2018-05-14T00:18:45.484Z,5.90
2018-05-14T00:21:13.415Z,6.23
2018-05-14T00:23:41.335Z,6.10
2018-05-14T00:26:09.234Z,6.40
2018-05-14T00:28:37.120Z,6.50
2018-05-14T00:31:05.025Z,6.20
2018-05-14T00:33:32.927Z,5.93
2018-05-14T00:36:00.853Z,6.77
2018-05-14T00:38:28.782Z,5.70
2018-05-14T00:40:56.735Z,6.20
2018-05-14T00:43:24.618Z,6.87
2018-05-14T00:45:52.526Z,7.20
2018-05-14T00:48:20.419Z,6.37
2018-05-14T00:50:48.309Z,7.40
2018-05-14T00:53:16.233Z,5.70
2018-05-14T00:55:44.126Z,6.67
2018-05-14T00:58:12.027Z,6.40
2018-05-14T01:00:39.930Z,7.23
2018-05-14T01:03:07.809Z,6.40
2018-05-14T01:05:35.702Z,6.33
2018-05-14T01:08:03.598Z,6.30
2018-05-14T01:10:31.494Z,6.80
2018-05-14T01:12:59.379Z,6.13
2018-05-14T01:15:27.266Z,6.70
2018-05-14T01:17:55.326Z,7.40
2018-05-14T01:20:23.244Z,6.50
2018-05-14T01:22:51.146Z,6.33
2018-05-14T01:25:19.046Z,7.00
2018-05-14T01:27:46.950Z,6.90
2018-05-14T01:30:14.841Z,6.70
2018-05-14T01:32:42.725Z,6.40
2018-05-14T01:35:10.613Z,6.67
2018-05-14T01:37:38.509Z,7.30
2018-05-14T01:40:06.402Z,6.60
2018-05-14T01:42:34.297Z,7.63
2018-05-14T01:45:02.220Z,6.80
2018-05-14T01:47:30.183Z,6.93
2018-05-14T01:49:58.077Z,6.40
2018-05-14T01:52:25.977Z,6.80
2018-05-14T01:54:53.870Z,7.63
2018-05-14T01:57:21.761Z,6.43
2018-05-14T01:59:49.653Z,6.93
2018-05-14T02:02:17.561Z,6.97
2018-05-14T02:04:45.470Z,7.10
2018-05-14T02:07:13.361Z,6.13
2018-05-14T02:09:41.253Z,6.87
2018-05-14T02:12:09.165Z,6.70
2018-05-14T02:14:37.058Z,6.83
2018-05-14T02:17:04.958Z,6.83
2018-05-14T02:19:33.026Z,6.70
2018-05-14T02:22:01.186Z,6.30
2018-05-14T02:24:29.078Z,8.10
2018-05-14T02:26:56.993Z,6.50
2018-05-14T02:29:24.925Z,7.23
2018-05-14T02:31:52.796Z,7.00
2018-05-14T02:34:20.708Z,6.97
2018-05-14T02:36:48.616Z,6.93
2018-05-14T02:39:16.506Z,6.80
2018-05-14T02:41:44.395Z,7.07
2018-05-14T02:44:12.293Z,6.37
2018-05-14T02:46:40.194Z,7.10
2018-05-14T02:49:08.086Z,5.97
2018-05-14T02:51:35.981Z,6.57
2018-05-14T02:54:03.882Z,7.40
2018-05-14T02:56:31.765Z,7.00
2018-05-14T02:58:59.697Z,6.87
2018-05-14T03:01:27.586Z,6.63
2018-05-14T03:03:55.494Z,7.07
2018-05-14T03:06:23.390Z,7.50
2018-05-14T03:08:51.302Z,7.30
2018-05-14T03:11:19.201Z,7.80
2018-05-14T03:13:47.093Z,7.97
2018-05-14T03:16:14.998Z,6.80
2018-05-14T03:18:42.895Z,7.17
2018-05-14T03:21:11.285Z,7.00
2018-05-14T03:23:39.214Z,7.50
2018-05-14T03:26:07.139Z,7.47
2018-05-14T03:28:35.046Z,7.53
2018-05-14T03:31:02.950Z,6.83
2018-05-14T03:33:30.850Z,6.60
2018-05-14T03:35:58.758Z,7.80
2018-05-14T03:38:27.538Z,7.00
2018-05-14T03:40:55.445Z,7.43
2018-05-14T03:43:23.407Z,7.40
2018-05-14T03:45:51.287Z,7.30
2018-05-14T03:48:19.201Z,7.40
2018-05-14T03:50:47.098Z,6.97
2018-05-14T03:53:14.998Z,8.33
2018-05-14T03:55:42.897Z,6.63
2018-05-14T03:58:17.038Z,7.80
2018-05-14T04:00:51.021Z,7.50
2018-05-14T04:03:25.158Z,7.33
2018-05-14T04:05:59.249Z,6.63
2018-05-14T04:08:27.192Z,7.10
2018-05-14T04:10:55.074Z,8.03
2018-05-14T04:13:22.988Z,6.90
2018-05-14T04:15:50.912Z,8.30
2018-05-14T04:18:18.805Z,7.37
2018-05-14T04:20:46.697Z,6.90
2018-05-14T04:23:14.780Z,7.27
2018-05-14T04:25:42.674Z,7.53
2018-05-14T04:28:10.582Z,7.70
2018-05-14T04:30:38.509Z,8.50
2018-05-14T04:33:06.430Z,8.20
2018-05-14T04:35:34.330Z,7.93
2018-05-14T04:38:02.226Z,7.23
2018-05-14T04:40:30.133Z,9.07
2018-05-14T04:42:58.049Z,7.67
2018-05-14T04:45:25.962Z,7.43
2018-05-14T04:47:53.878Z,7.40
2018-05-14T04:50:21.779Z,7.77
2018-05-14T04:52:49.706Z,8.23
2018-05-14T04:55:17.611Z,7.60
2018-05-14T04:57:45.526Z,7.73
2018-05-14T05:00:13.422Z,7.30
2018-05-14T05:02:41.333Z,8.10
2018-05-14T05:05:09.236Z,7.83
2018-05-14T05:07:37.142Z,7.50
2018-05-14T05:10:05.035Z,9.13
2018-05-14T05:12:32.958Z,7.50
2018-05-14T05:15:00.869Z,8.23
2018-05-14T05:17:28.770Z,8.10
2018-05-14T05:19:56.658Z,8.17
2018-05-14T05:22:24.578Z,8.00
2018-05-14T05:24:52.704Z,7.93
2018-05-14T05:27:20.598Z,8.70
2018-05-14T05:29:48.489Z,7.63
2018-05-14T05:32:16.406Z,7.73
2018-05-14T05:34:44.327Z,8.57
2018-05-14T05:37:12.250Z,9.00
2018-05-14T05:39:40.153Z,8.87
2018-05-14T05:42:08.081Z,7.80
2018-05-14T05:44:35.994Z,8.93
2018-05-14T05:47:03.898Z,11.43
2018-05-14T05:49:31.797Z,11.60
2018-05-14T05:51:59.743Z,8.50
2018-05-14T05:54:27.653Z,7.37
2018-05-14T05:56:55.557Z,7.53
2018-05-14T05:59:23.453Z,8.60
2018-05-14T06:01:51.362Z,8.17
2018-05-14T06:04:19.267Z,8.40
2018-05-14T06:06:47.189Z,8.80
2018-05-14T06:09:15.102Z,7.40
2018-05-14T06:11:43.273Z,8.20
2018-05-14T06:14:11.173Z,7.63
2018-05-14T06:16:39.089Z,8.37
2018-05-14T06:19:07.044Z,7.40
2018-05-14T06:21:34.950Z,6.90
2018-05-14T06:24:02.860Z,8.00
2018-05-14T06:26:31.050Z,7.80
2018-05-14T06:28:58.966Z,8.27
2018-05-14T06:31:26.890Z,7.23
2018-05-14T06:33:54.803Z,7.80
2018-05-14T06:36:22.702Z,7.50
2018-05-14T06:38:50.602Z,7.60
2018-05-14T06:41:18.498Z,8.63
2018-05-14T06:43:46.606Z,7.50
2018-05-14T06:46:14.381Z,6.80
2018-05-14T06:48:42.211Z,7.00
2018-05-14T06:51:10.154Z,7.23
2018-05-14T06:53:38.045Z,6.20
2018-05-14T06:56:05.938Z,7.33
2018-05-14T06:58:33.837Z,6.73
2018-05-14T07:01:01.763Z,7.67
2018-05-14T07:03:29.681Z,6.83
2018-05-14T07:05:57.574Z,6.47
2018-05-14T07:08:25.513Z,6.27
2018-05-14T07:10:53.409Z,6.30
2018-05-14T07:13:21.297Z,7.00
2018-05-14T07:15:49.202Z,6.73
2018-05-14T07:18:17.117Z,6.40
2018-05-14T07:20:45.018Z,6.70
2018-05-14T07:23:12.922Z,6.37
2018-05-14T07:25:41.089Z,6.30
2018-05-14T07:28:08.953Z,6.50
2018-05-14T07:30:36.849Z,6.13
2018-05-14T07:33:04.746Z,5.97
2018-05-14T07:35:32.645Z,6.83
2018-05-14T07:38:00.536Z,7.57
2018-05-14T07:40:28.508Z,5.53
2018-05-14T07:42:56.354Z,6.20
2018-05-14T07:45:24.249Z,6.67
2018-05-14T07:47:52.162Z,6.33
2018-05-14T07:50:20.077Z,7.00
2018-05-14T07:52:47.973Z,6.03
2018-05-14T07:55:15.945Z,9.00
2018-05-14T07:57:43.857Z,7.80
2018-05-14T08:00:11.778Z,6.30
2018-05-14T08:02:39.661Z,6.10
2018-05-14T08:05:07.562Z,6.27
2018-05-14T08:07:35.475Z,8.40
2018-05-14T08:10:03.381Z,6.60
2018-05-14T08:12:31.266Z,6.83
2018-05-14T08:14:59.179Z,5.73
2018-05-14T08:17:27.097Z,5.83
2018-05-14T08:19:55.018Z,4.93
2018-05-14T08:22:22.926Z,5.50
2018-05-14T08:24:50.834Z,5.13
2018-05-14T08:27:18.722Z,5.23
2018-05-14T08:29:46.775Z,5.20
2018-05-14T08:32:14.670Z,5.43
2018-05-14T08:34:42.565Z,5.60
2018-05-14T08:37:10.549Z,4.70
2018-05-14T08:39:38.423Z,5.07
2018-05-14T08:42:06.338Z,5.23
2018-05-14T08:44:34.245Z,5.30
2018-05-14T08:47:02.146Z,4.90
2018-05-14T08:49:30.066Z,5.40
2018-05-14T08:51:57.958Z,5.13
2018-05-14T08:54:26.011Z,4.70
2018-05-14T08:56:53.765Z,5.10
2018-05-14T08:59:21.671Z,5.90
2018-05-14T09:01:49.637Z,4.70
2018-05-14T09:04:17.530Z,4.70
2018-05-14T09:06:45.428Z,5.70
2018-05-14T09:09:13.317Z,7.20
2018-05-14T09:11:41.220Z,4.87
2018-05-14T09:14:09.111Z,5.13
2018-05-14T09:16:37.022Z,6.37
2018-05-14T09:19:04.925Z,5.70
2018-05-14T09:21:32.813Z,4.37
2018-05-14T09:24:00.722Z,4.33
2018-05-14T09:26:28.633Z,4.37
2018-05-14T09:28:56.540Z,4.40
2018-05-14T09:31:24.683Z,4.30
2018-05-14T09:33:52.549Z,4.70
2018-05-14T09:36:20.454Z,4.60
2018-05-14T09:38:48.338Z,4.70
2018-05-14T09:41:16.230Z,5.13
2018-05-14T09:43:44.134Z,6.27
2018-05-14T09:46:12.029Z,6.87
2018-05-14T09:48:39.928Z,5.77
2018-05-14T09:51:07.833Z,4.50
2018-05-14T09:53:35.747Z,4.57
2018-05-14T09:56:03.630Z,4.60
2018-05-14T09:58:31.525Z,3.97
2018-05-14T10:00:59.417Z,4.37
2018-05-14T10:03:27.375Z,3.63
2018-05-14T10:05:55.321Z,3.97
2018-05-14T10:08:23.218Z,3.90
2018-05-14T10:10:51.129Z,6.40
2018-05-14T10:13:19.025Z,4.73
2018-05-14T10:15:46.922Z,4.27
2018-05-14T10:18:14.816Z,4.60
2018-05-14T10:20:42.722Z,4.60
2018-05-14T10:23:10.618Z,4.53
2018-05-14T10:25:38.514Z,4.10
2018-05-14T10:28:06.402Z,3.87
2018-05-14T10:30:34.297Z,3.90
2018-05-14T10:33:02.409Z,4.80
2018-05-14T10:35:30.309Z,4.50
2018-05-14T10:37:58.214Z,4.13
2018-05-14T10:40:26.128Z,4.57
2018-05-14T10:42:54.030Z,4.23
2018-05-14T10:45:21.913Z,4.63
2018-05-14T10:47:49.834Z,5.20
2018-05-14T10:50:17.721Z,3.80
2018-05-14T10:52:45.705Z,4.43
2018-05-14T10:55:13.551Z,4.03
2018-05-14T10:57:41.441Z,3.23
2018-05-14T11:00:09.350Z,3.90
2018-05-14T11:02:37.241Z,4.27
2018-05-14T11:05:05.145Z,3.93
2018-05-14T11:07:33.044Z,7.30
2018-05-14T11:10:01.026Z,6.40
2018-05-14T11:12:28.913Z,3.90
2018-05-14T11:14:56.837Z,3.93
2018-05-14T11:17:24.737Z,4.60
2018-05-14T11:19:52.641Z,3.87
2018-05-14T11:22:20.542Z,4.60
2018-05-14T11:24:48.430Z,4.90
2018-05-14T11:27:16.326Z,3.83
2018-05-14T11:29:44.242Z,4.20
2018-05-14T11:32:12.135Z,4.37
2018-05-14T11:34:40.241Z,4.30
2018-05-14T11:37:08.165Z,4.50
2018-05-14T11:39:36.069Z,4.30
2018-05-14T11:42:03.960Z,4.10
2018-05-14T11:44:31.862Z,5.87
2018-05-14T11:46:59.762Z,7.23
2018-05-14T11:49:27.675Z,7.63
2018-05-14T11:51:55.580Z,5.00
2018-05-14T11:54:23.473Z,5.33
2018-05-14T11:56:51.365Z,4.90
2018-05-14T11:59:19.268Z,5.00
2018-05-14T12:01:47.187Z,5.47
2018-05-14T12:04:15.081Z,4.90
2018-05-14T12:06:42.978Z,4.93
2018-05-14T12:09:10.869Z,5.27
2018-05-14T12:11:38.770Z,5.17
2018-05-14T12:14:06.669Z,4.60
2018-05-14T12:16:34.590Z,5.63
2018-05-14T12:19:02.481Z,8.00
2018-05-14T12:21:30.410Z,6.07
2018-05-14T12:23:58.302Z,5.40
2018-05-14T12:26:26.194Z,4.67
2018-05-14T12:28:54.085Z,4.80
2018-05-14T12:31:21.994Z,4.53
2018-05-14T12:33:49.889Z,4.37
2018-05-14T12:36:18.063Z,5.67
2018-05-14T12:38:45.969Z,4.57
2018-05-14T12:41:13.867Z,5.23
2018-05-14T12:43:41.810Z,5.23
2018-05-14T12:46:09.712Z,4.83
2018-05-14T12:48:37.605Z,5.27
2018-05-14T12:51:05.537Z,4.70
2018-05-14T12:53:33.434Z,4.90
2018-05-14T12:56:01.342Z,5.50
2018-05-14T12:58:29.249Z,7.30
2018-05-14T13:00:57.153Z,5.90
2018-05-14T13:03:25.046Z,5.63
2018-05-14T13:05:52.982Z,8.33
2018-05-14T13:08:20.889Z,7.23
2018-05-14T13:10:48.789Z,5.97
2018-05-14T13:13:16.681Z,5.50
2018-05-14T13:15:44.580Z,4.77
2018-05-14T13:18:12.487Z,5.33
2018-05-14T13:20:40.378Z,5.00
2018-05-14T13:23:08.285Z,5.37
2018-05-14T13:25:36.210Z,6.13
2018-05-14T13:28:04.097Z,5.50
2018-05-14T13:30:32.009Z,5.33
2018-05-14T13:32:59.913Z,5.50
2018-05-14T13:35:27.807Z,6.17
2018-05-14T13:37:56.078Z,5.07
2018-05-14T13:40:23.911Z,5.53
2018-05-14T13:42:51.826Z,5.37
2018-05-14T13:45:19.727Z,5.20
2018-05-14T13:47:47.654Z,6.50
2018-05-14T13:50:15.566Z,6.00
2018-05-14T13:52:43.466Z,5.70
2018-05-14T13:55:11.406Z,5.30
2018-05-14T13:57:39.305Z,5.53
2018-05-14T14:00:07.203Z,5.83
2018-05-14T14:02:35.141Z,5.77
2018-05-14T14:05:03.142Z,6.50
2018-05-14T14:07:30.947Z,5.60
2018-05-14T14:09:58.846Z,5.07
2018-05-14T14:12:26.738Z,5.30
2018-05-14T14:14:54.634Z,5.47
2018-05-14T14:17:22.538Z,6.67
2018-05-14T14:19:50.437Z,5.80
2018-05-14T14:22:18.333Z,5.47
2018-05-14T14:24:46.281Z,5.30
2018-05-14T14:27:14.234Z,5.80
2018-05-14T14:29:42.181Z,6.23
2018-05-14T14:32:10.090Z,7.67
2018-05-14T14:34:37.993Z,6.03
2018-05-14T14:37:05.890Z,6.00
2018-05-14T14:39:34.007Z,5.60
2018-05-14T14:42:02.071Z,5.50
2018-05-14T14:44:29.886Z,4.93
2018-05-14T14:46:57.813Z,5.70
2018-05-14T14:49:25.776Z,6.20
2018-05-14T14:51:53.718Z,5.50
2018-05-14T14:54:21.630Z,5.87
2018-05-14T14:56:49.541Z,5.47
2018-05-14T14:59:17.443Z,5.57
2018-05-14T15:01:45.337Z,5.87
2018-05-14T15:04:13.237Z,6.00
2018-05-14T15:06:41.142Z,6.43
2018-05-14T15:09:09.085Z,5.93
2018-05-14T15:11:36.986Z,5.03
2018-05-14T15:14:04.888Z,5.60
2018-05-14T15:16:32.775Z,6.00
2018-05-14T15:19:00.703Z,5.23
2018-05-14T15:21:28.611Z,7.33
2018-05-14T15:23:56.510Z,6.63
2018-05-14T15:26:24.409Z,4.87
2018-05-14T15:28:52.314Z,5.60
2018-05-14T15:31:20.227Z,5.10
2018-05-14T15:33:48.145Z,4.73
2018-05-14T15:36:16.077Z,5.13
2018-05-14T15:38:44.014Z,6.57
2018-05-14T15:41:12.136Z,4.43
2018-05-14T15:43:40.048Z,4.30
2018-05-14T15:46:07.955Z,4.80
2018-05-14T15:48:35.905Z,4.33
2018-05-14T15:51:03.802Z,4.20
2018-05-14T15:53:31.698Z,5.47
2018-05-14T15:55:59.614Z,5.60
2018-05-14T15:58:27.563Z,6.63
2018-05-14T16:00:55.471Z,6.87
2018-05-14T16:03:23.411Z,5.20
2018-05-14T16:05:51.329Z,5.10
2018-05-14T16:08:19.242Z,4.60
2018-05-14T16:10:47.170Z,5.03
2018-05-14T16:13:15.097Z,4.77
2018-05-14T16:15:43.022Z,4.80
2018-05-14T16:18:10.915Z,4.73
2018-05-14T16:20:38.806Z,5.13
2018-05-14T16:23:06.715Z,6.17
2018-05-14T16:25:34.626Z,5.40
2018-05-14T16:28:02.575Z,5.30
2018-05-14T16:30:30.474Z,6.43
2018-05-14T16:32:58.378Z,6.30
2018-05-14T16:35:26.303Z,6.70
2018-05-14T16:37:54.193Z,5.30
2018-05-14T16:40:22.128Z,4.73
2018-05-14T16:42:50.257Z,4.37
2018-05-14T16:45:18.182Z,5.40
2018-05-14T16:47:46.045Z,6.23
2018-05-14T16:50:13.956Z,5.03
2018-05-14T16:52:41.926Z,5.33
2018-05-14T16:55:09.841Z,7.90
2018-05-14T16:57:37.788Z,6.80
2018-05-14T17:00:05.716Z,6.00
2018-05-14T17:02:33.641Z,6.23
2018-05-14T17:05:01.556Z,8.53
2018-05-14T17:07:29.465Z,6.17
2018-05-14T17:09:57.377Z,5.90
2018-05-14T17:12:25.317Z,5.53
2018-05-14T17:14:53.221Z,5.40
2018-05-14T17:17:21.182Z,5.33
2018-05-14T17:19:49.069Z,6.00
2018-05-14T17:22:16.969Z,5.60
2018-05-14T17:24:44.853Z,5.23
2018-05-14T17:27:12.744Z,5.50
2018-05-14T17:29:40.638Z,7.47
2018-05-14T17:32:08.553Z,7.97
2018-05-14T17:34:36.473Z,6.30
2018-05-14T17:37:04.389Z,5.17
2018-05-14T17:39:32.300Z,4.90
2018-05-14T17:42:00.222Z,5.07
2018-05-14T17:44:28.386Z,6.63
2018-05-14T17:46:56.383Z,5.10
2018-05-14T17:49:24.193Z,4.50
2018-05-14T17:51:52.090Z,4.53
2018-05-14T17:54:20.010Z,5.03
2018-05-14T17:56:47.909Z,7.60
2018-05-14T17:59:15.813Z,7.00
2018-05-14T18:01:43.722Z,7.83
2018-05-14T18:04:11.651Z,7.37
2018-05-14T18:06:39.568Z,5.80
2018-05-14T18:09:07.487Z,5.00
2018-05-14T18:11:35.399Z,5.43
2018-05-14T18:14:03.294Z,4.90
2018-05-14T18:16:31.209Z,5.73
2018-05-14T18:18:59.100Z,4.70
2018-05-14T18:21:33.150Z,4.83
2018-05-14T18:24:01.049Z,4.40
2018-05-14T18:26:35.134Z,5.87
2018-05-14T18:29:04.899Z,4.63
2018-05-14T18:31:32.807Z,3.77
2018-05-14T18:34:06.835Z,5.10
2018-05-14T18:36:34.793Z,4.60
2018-05-14T18:39:02.724Z,4.53
2018-05-14T18:41:30.629Z,4.00
2018-05-14T18:43:58.542Z,4.67
2018-05-14T18:46:26.701Z,4.70
2018-05-14T18:48:54.562Z,4.33
2018-05-14T18:51:22.490Z,4.77
2018-05-14T18:53:50.381Z,4.60
2018-05-14T18:56:18.290Z,4.80
2018-05-14T18:58:46.177Z,3.97
2018-05-14T19:01:14.091Z,4.33
2018-05-14T19:03:41.994Z,5.13
2018-05-14T19:06:09.914Z,4.60
2018-05-14T19:08:37.817Z,3.83
2018-05-14T19:11:11.958Z,5.37
2018-05-14T19:13:39.866Z,3.87
2018-05-14T19:16:13.973Z,4.60
2018-05-14T19:18:41.980Z,4.57
2018-05-14T19:21:09.855Z,9.27
2018-05-14T19:23:43.918Z,8.50
2018-05-14T19:26:11.818Z,5.30
2018-05-14T19:28:45.725Z,5.07
2018-05-14T19:31:13.590Z,5.27
2018-05-14T19:33:47.566Z,4.90
2018-05-14T19:36:15.471Z,5.20
2018-05-14T19:38:43.390Z,4.50
2018-05-14T19:41:11.301Z,5.43
2018-05-14T19:43:39.222Z,5.03
2018-05-14T19:46:07.118Z,5.23
2018-05-14T19:48:35.036Z,6.27
2018-05-14T19:51:03.095Z,6.57
2018-05-14T19:53:30.933Z,6.20
2018-05-14T19:55:58.865Z,6.70
2018-05-14T19:58:26.790Z,5.30
2018-05-14T20:00:54.708Z,6.10
2018-05-14T20:03:22.599Z,7.30
2018-05-14T20:05:50.502Z,6.33
2018-05-14T20:10:49.533Z,8.97
2018-05-14T20:13:17.436Z,7.70
2018-05-14T20:15:45.386Z,6.37
2018-05-14T20:18:13.335Z,7.47
2018-05-14T20:20:41.262Z,6.13
2018-05-14T20:23:09.218Z,6.53
2018-05-14T20:25:37.124Z,6.17
2018-05-14T20:28:05.022Z,6.30
2018-05-14T20:30:32.951Z,9.13
2018-05-14T20:33:00.861Z,7.77
2018-05-14T20:35:28.758Z,6.93
2018-05-14T20:37:56.661Z,7.30
2018-05-14T20:40:24.566Z,7.10
2018-05-14T20:42:52.464Z,7.10
2018-05-14T20:45:20.462Z,7.60
2018-05-14T20:47:48.257Z,6.60
2018-05-14T20:50:16.185Z,8.57
2018-05-14T20:52:44.110Z,9.30
2018-05-14T20:55:12.018Z,8.40
2018-05-14T20:57:39.911Z,7.43
2018-05-14T21:00:07.826Z,7.27
2018-05-14T21:02:35.731Z,7.70
2018-05-14T21:05:03.648Z,7.30
2018-05-14T21:07:31.541Z,7.40
2018-05-14T21:09:59.438Z,7.33
2018-05-14T21:12:27.344Z,6.20
2018-05-14T21:14:55.257Z,9.20
2018-05-14T21:17:23.232Z,8.80
2018-05-14T21:19:51.173Z,7.87
2018-05-14T21:22:19.097Z,7.27
2018-05-14T21:24:47.010Z,8.13
2018-05-14T21:27:14.918Z,7.60
2018-05-14T21:29:42.828Z,8.83
2018-05-14T21:32:10.726Z,7.73
2018-05-14T21:34:38.629Z,7.87
2018-05-14T21:37:06.536Z,8.00
2018-05-14T21:39:34.469Z,7.30
2018-05-14T21:42:02.397Z,6.90
2018-05-14T21:44:30.296Z,8.00
2018-05-14T21:46:58.211Z,7.87
2018-05-14T21:49:26.127Z,7.07
2018-05-14T21:51:54.040Z,7.90
2018-05-14T21:54:21.952Z,8.00
2018-05-14T21:56:49.882Z,7.13
2018-05-14T21:59:17.814Z,8.00
2018-05-14T22:01:45.746Z,7.57
2018-05-14T22:04:13.642Z,7.40
2018-05-14T22:06:41.554Z,8.90
2018-05-14T22:09:09.462Z,9.77
2018-05-14T22:11:37.359Z,8.67
2018-05-14T22:14:05.256Z,7.93
2018-05-14T22:16:33.146Z,8.23
2018-05-14T22:19:01.182Z,7.47
2018-05-14T22:21:29.200Z,7.50
2018-05-14T22:23:57.097Z,7.67
2018-05-14T22:26:25.011Z,7.50
2018-05-14T22:28:52.926Z,7.90
2018-05-14T22:31:20.843Z,7.40
2018-05-14T22:33:48.743Z,8.23
2018-05-14T22:36:16.653Z,9.70
2018-05-14T22:38:44.564Z,8.50
2018-05-14T22:41:12.465Z,7.97
2018-05-14T22:43:40.365Z,7.40
2018-05-14T22:46:08.280Z,7.70
2018-05-14T22:48:36.171Z,7.97
2018-05-14T22:51:04.074Z,8.00
2018-05-14T22:53:32.160Z,7.40
2018-05-14T22:56:00.057Z,8.93
2018-05-14T22:58:27.954Z,8.87
2018-05-14T23:00:55.862Z,7.57
2018-05-14T23:03:23.758Z,7.90
2018-05-14T23:05:51.658Z,8.57
2018-05-14T23:08:19.557Z,9.13
2018-05-14T23:10:47.490Z,8.83
2018-05-14T23:13:15.423Z,9.63
2018-05-14T23:15:43.321Z,9.53
2018-05-14T23:18:11.221Z,9.00
2018-05-14T23:20:39.110Z,9.90
2018-05-14T23:23:07.005Z,9.57
2018-05-14T23:25:34.895Z,10.30
2018-05-14T23:28:02.803Z,10.00
2018-05-14T23:30:30.693Z,9.93
2018-05-14T23:32:58.585Z,10.30
2018-05-14T23:35:26.550Z,9.47
2018-05-14T23:37:54.486Z,11.10
2018-05-14T23:40:22.374Z,10.07
2018-05-14T23:42:50.274Z,10.07
2018-05-14T23:45:18.178Z,9.90
2018-05-14T23:47:46.070Z,9.90
2018-05-14T23:50:13.981Z,11.43
2018-05-14T23:52:41.869Z,10.07
2018-05-14T23:55:09.953Z,10.40
2018-05-14T23:57:37.850Z,10.20
